Mozelle, Texas
Current Conditions -  °F | °C
As of 9:35 AM on Saturday 25 Oct 2014 (Local Time) from KCOM Reporting Station
Clear Clear  
Wind Chill: 70°   Ceiling: Unl
Heat Index: 70°   Visibility: 10mi
Dew Point: 60°   Wind: 7mph
Humidity: 70%   Direction: 240°WSW
Pressure: 30.19"   Gusts: NA
Location:  31.8779°N, 99.43°W
Report Text: KCOM 251435Z AUTO 24006KT 10SM CLR 21/16 A3019 RMK AO2 T02130157
Loading
Personal Weather Stations






























Interactive Weather Map
Tropical Storm Tracking
New forecast layout! Learn more

10-Day Weather Forecast

Advertisements
Track Severe Weather on mobile